sensor_id;sensor_type;location;lat;lon;timestamp;temperature;humidity
2477;DHT22;1249;51.270;6.756;2023-07-30T00:01:07;22.80;99.90
2477;DHT22;1249;51.270;6.756;2023-07-30T00:03:32;22.80;99.90
2477;DHT22;1249;51.270;6.756;2023-07-30T00:05:58;22.80;99.90
2477;DHT22;1249;51.270;6.756;2023-07-30T00:08:23;22.80;99.90
2477;DHT22;1249;51.270;6.756;2023-07-30T00:10:49;22.80;99.90
2477;DHT22;1249;51.270;6.756;2023-07-30T00:13:15;22.80;99.90
2477;DHT22;1249;51.270;6.756;2023-07-30T00:15:41;22.70;99.90
2477;DHT22;1249;51.270;6.756;2023-07-30T00:18:06;22.70;99.90
2477;DHT22;1249;51.270;6.756;2023-07-30T00:20:34;22.70;99.90
2477;DHT22;1249;51.270;6.756;2023-07-30T00:23:00;22.70;99.90
2477;DHT22;1249;51.270;6.756;2023-07-30T00:25:26;22.60;99.90
2477;DHT22;1249;51.270;6.756;2023-07-30T00:27:51;22.60;99.90
2477;DHT22;1249;51.270;6.756;2023-07-30T00:30:17;22.70;99.90
2477;DHT22;1249;51.270;6.756;2023-07-30T00:32:42;22.70;99.90
2477;DHT22;1249;51.270;6.756;2023-07-30T00:35:09;22.60;99.90
2477;DHT22;1249;51.270;6.756;2023-07-30T00:37:35;22.50;99.90
2477;DHT22;1249;51.270;6.756;2023-07-30T00:40:02;22.60;99.90
2477;DHT22;1249;51.270;6.756;2023-07-30T00:42:28;22.50;99.90
2477;DHT22;1249;51.270;6.756;2023-07-30T00:44:54;22.50;99.90
2477;DHT22;1249;51.270;6.756;2023-07-30T00:47:20;22.50;99.90
2477;DHT22;1249;51.270;6.756;2023-07-30T00:49:47;22.50;99.90
2477;DHT22;1249;51.270;6.756;2023-07-30T00:52:13;22.40;99.90
2477;DHT22;1249;51.270;6.756;2023-07-30T00:54:39;22.40;99.90
2477;DHT22;1249;51.270;6.756;2023-07-30T00:57:05;22.40;99.90
2477;DHT22;1249;51.270;6.756;2023-07-30T00:59:32;22.40;99.90
2477;DHT22;1249;51.270;6.756;2023-07-30T01:01:59;22.40;99.90
2477;DHT22;1249;51.270;6.756;2023-07-30T01:04:25;22.40;99.90
2477;DHT22;1249;51.270;6.756;2023-07-30T01:06:51;22.40;99.90
2477;DHT22;1249;51.270;6.756;2023-07-30T01:09:16;22.40;99.90
2477;DHT22;1249;51.270;6.756;2023-07-30T01:11:43;22.30;99.90
2477;DHT22;1249;51.270;6.756;2023-07-30T01:14:10;22.30;99.90
2477;DHT22;1249;51.270;6.756;2023-07-30T01:16:36;22.30;99.90
2477;DHT22;1249;51.270;6.756;2023-07-30T01:19:02;22.30;99.90
2477;DHT22;1249;51.270;6.756;2023-07-30T01:21:34;22.40;99.90
2477;DHT22;1249;51.270;6.756;2023-07-30T01:23:59;22.40;99.90
2477;DHT22;1249;51.270;6.756;2023-07-30T01:26:30;22.40;99.90
2477;DHT22;1249;51.270;6.756;2023-07-30T01:29:00;22.40;99.90
2477;DHT22;1249;51.270;6.756;2023-07-30T01:31:27;22.40;99.90
2477;DHT22;1249;51.270;6.756;2023-07-30T01:33:56;22.40;99.90
2477;DHT22;1249;51.270;6.756;2023-07-30T01:36:22;22.40;99.90
2477;DHT22;1249;51.270;6.756;2023-07-30T01:38:49;22.40;99.90
2477;DHT22;1249;51.270;6.756;2023-07-30T01:41:15;22.40;99.90
2477;DHT22;1249;51.270;6.756;2023-07-30T01:43:41;22.40;99.90
2477;DHT22;1249;51.270;6.756;2023-07-30T01:46:06;22.40;99.90
2477;DHT22;1249;51.270;6.756;2023-07-30T01:48:32;22.40;99.90
2477;DHT22;1249;51.270;6.756;2023-07-30T01:50:57;22.40;99.90
2477;DHT22;1249;51.270;6.756;2023-07-30T01:53:23;22.40;99.90
2477;DHT22;1249;51.270;6.756;2023-07-30T01:55:49;22.30;99.90
2477;DHT22;1249;51.270;6.756;2023-07-30T01:58:14;22.30;99.90
2477;DHT22;1249;51.270;6.756;2023-07-30T02:00:40;22.30;99.90
2477;DHT22;1249;51.270;6.756;2023-07-30T02:03:06;22.30;99.90
2477;DHT22;1249;51.270;6.756;2023-07-30T02:05:31;22.30;99.90
2477;DHT22;1249;51.270;6.756;2023-07-30T02:07:58;22.30;99.90
2477;DHT22;1249;51.270;6.756;2023-07-30T02:10:25;22.30;99.90
2477;DHT22;1249;51.270;6.756;2023-07-30T02:12:51;22.20;99.90
2477;DHT22;1249;51.270;6.756;2023-07-30T02:15:17;22.20;99.90
2477;DHT22;1249;51.270;6.756;2023-07-30T02:17:42;22.20;99.90
2477;DHT22;1249;51.270;6.756;2023-07-30T02:20:08;22.30;99.90
2477;DHT22;1249;51.270;6.756;2023-07-30T02:22:34;22.20;99.90
2477;DHT22;1249;51.270;6.756;2023-07-30T02:24:59;22.20;99.90
2477;DHT22;1249;51.270;6.756;2023-07-30T02:27:25;22.10;99.90
2477;DHT22;1249;51.270;6.756;2023-07-30T02:29:51;22.10;99.90
2477;DHT22;1249;51.270;6.756;2023-07-30T02:32:16;22.10;99.90
2477;DHT22;1249;51.270;6.756;2023-07-30T02:34:42;22.10;99.90
2477;DHT22;1249;51.270;6.756;2023-07-30T02:37:07;22.10;99.90
2477;DHT22;1249;51.270;6.756;2023-07-30T02:39:33;22.10;99.90
2477;DHT22;1249;51.270;6.756;2023-07-30T02:41:58;22.10;99.90
2477;DHT22;1249;51.270;6.756;2023-07-30T02:44:24;22.00;99.90
2477;DHT22;1249;51.270;6.756;2023-07-30T02:46:49;22.00;99.90
2477;DHT22;1249;51.270;6.756;2023-07-30T02:49:15;22.00;99.90
2477;DHT22;1249;51.270;6.756;2023-07-30T02:51:40;22.10;99.90
2477;DHT22;1249;51.270;6.756;2023-07-30T02:54:07;22.00;99.90
2477;DHT22;1249;51.270;6.756;2023-07-30T02:56:33;22.00;99.90
2477;DHT22;1249;51.270;6.756;2023-07-30T02:58:59;22.00;99.90
2477;DHT22;1249;51.270;6.756;2023-07-30T03:01:24;22.00;99.90
2477;DHT22;1249;51.270;6.756;2023-07-30T03:03:50;21.90;99.90
2477;DHT22;1249;51.270;6.756;2023-07-30T03:06:16;21.90;99.90
2477;DHT22;1249;51.270;6.756;2023-07-30T03:08:43;21.90;99.90
2477;DHT22;1249;51.270;6.756;2023-07-30T03:11:08;21.90;99.90
2477;DHT22;1249;51.270;6.756;2023-07-30T03:13:34;21.90;99.90
2477;DHT22;1249;51.270;6.756;2023-07-30T03:15:59;21.90;99.90
2477;DHT22;1249;51.270;6.756;2023-07-30T03:18:25;21.90;99.90
2477;DHT22;1249;51.270;6.756;2023-07-30T03:20:50;21.90;99.90
2477;DHT22;1249;51.270;6.756;2023-07-30T03:23:16;21.90;99.90
2477;DHT22;1249;51.270;6.756;2023-07-30T03:25:42;21.90;99.90
2477;DHT22;1249;51.270;6.756;2023-07-30T03:28:07;21.80;99.90
2477;DHT22;1249;51.270;6.756;2023-07-30T03:30:33;21.80;99.90
2477;DHT22;1249;51.270;6.756;2023-07-30T03:32:58;21.80;99.90
2477;DHT22;1249;51.270;6.756;2023-07-30T03:35:24;21.80;99.90
2477;DHT22;1249;51.270;6.756;2023-07-30T03:37:49;21.80;99.90
2477;DHT22;1249;51.270;6.756;2023-07-30T03:40:15;21.80;99.90
2477;DHT22;1249;51.270;6.756;2023-07-30T03:42:40;21.80;99.90
2477;DHT22;1249;51.270;6.756;2023-07-30T03:45:06;21.70;99.90
2477;DHT22;1249;51.270;6.756;2023-07-30T03:47:32;21.80;99.90
2477;DHT22;1249;51.270;6.756;2023-07-30T03:49:57;21.80;99.90
2477;DHT22;1249;51.270;6.756;2023-07-30T03:52:23;21.80;99.90
2477;DHT22;1249;51.270;6.756;2023-07-30T03:54:48;21.80;99.90
2477;DHT22;1249;51.270;6.756;2023-07-30T03:57:14;21.80;99.90
2477;DHT22;1249;51.270;6.756;2023-07-30T03:59:39;21.80;99.90
2477;DHT22;1249;51.270;6.756;2023-07-30T04:02:05;21.80;99.90
2477;DHT22;1249;51.270;6.756;2023-07-30T04:04:30;21.80;99.90
2477;DHT22;1249;51.270;6.756;2023-07-30T04:06:56;21.80;99.90
2477;DHT22;1249;51.270;6.756;2023-07-30T04:09:22;21.80;99.90
2477;DHT22;1249;51.270;6.756;2023-07-30T04:11:47;21.80;99.90
2477;DHT22;1249;51.270;6.756;2023-07-30T04:14:13;21.80;99.90
2477;DHT22;1249;51.270;6.756;2023-07-30T04:16:38;21.90;99.90
2477;DHT22;1249;51.270;6.756;2023-07-30T04:19:04;21.90;99.90
2477;DHT22;1249;51.270;6.756;2023-07-30T04:21:29;21.80;99.90
2477;DHT22;1249;51.270;6.756;2023-07-30T04:23:55;21.90;99.90
2477;DHT22;1249;51.270;6.756;2023-07-30T04:26:20;21.90;99.90
2477;DHT22;1249;51.270;6.756;2023-07-30T04:28:46;21.90;99.90
2477;DHT22;1249;51.270;6.756;2023-07-30T04:31:11;21.90;99.90
2477;DHT22;1249;51.270;6.756;2023-07-30T04:33:37;21.90;99.90
2477;DHT22;1249;51.270;6.756;2023-07-30T04:36:03;21.90;99.90
2477;DHT22;1249;51.270;6.756;2023-07-30T04:38:28;21.90;99.90
2477;DHT22;1249;51.270;6.756;2023-07-30T04:40:57;21.90;99.90
2477;DHT22;1249;51.270;6.756;2023-07-30T04:43:23;21.90;99.90
2477;DHT22;1249;51.270;6.756;2023-07-30T04:45:49;21.90;99.90
2477;DHT22;1249;51.270;6.756;2023-07-30T04:48:14;21.90;99.90
2477;DHT22;1249;51.270;6.756;2023-07-30T04:50:40;21.90;99.90
2477;DHT22;1249;51.270;6.756;2023-07-30T04:53:07;22.00;99.90
2477;DHT22;1249;51.270;6.756;2023-07-30T04:55:34;22.00;99.90
2477;DHT22;1249;51.270;6.756;2023-07-30T04:57:59;22.00;99.90
2477;DHT22;1249;51.270;6.756;2023-07-30T05:00:25;22.00;99.90
2477;DHT22;1249;51.270;6.756;2023-07-30T05:02:51;22.00;99.90
2477;DHT22;1249;51.270;6.756;2023-07-30T05:05:16;22.00;99.90
2477;DHT22;1249;51.270;6.756;2023-07-30T05:07:42;22.00;99.90
2477;DHT22;1249;51.270;6.756;2023-07-30T05:10:08;22.00;99.90
2477;DHT22;1249;51.270;6.756;2023-07-30T05:12:36;22.00;99.90
2477;DHT22;1249;51.270;6.756;2023-07-30T05:15:02;22.00;99.90
2477;DHT22;1249;51.270;6.756;2023-07-30T05:17:28;22.00;99.90
2477;DHT22;1249;51.270;6.756;2023-07-30T05:19:53;21.90;99.90
2477;DHT22;1249;51.270;6.756;2023-07-30T05:22:19;21.90;99.90
2477;DHT22;1249;51.270;6.756;2023-07-30T05:24:44;21.90;99.90
2477;DHT22;1249;51.270;6.756;2023-07-30T05:27:10;21.90;99.90
2477;DHT22;1249;51.270;6.756;2023-07-30T05:29:35;21.90;99.90
2477;DHT22;1249;51.270;6.756;2023-07-30T05:32:01;21.90;99.90
2477;DHT22;1249;51.270;6.756;2023-07-30T05:34:27;21.90;99.90
2477;DHT22;1249;51.270;6.756;2023-07-30T05:36:52;22.00;99.90
2477;DHT22;1249;51.270;6.756;2023-07-30T05:39:18;22.00;99.90
2477;DHT22;1249;51.270;6.756;2023-07-30T05:41:43;22.00;99.90
2477;DHT22;1249;51.270;6.756;2023-07-30T05:44:09;22.00;99.90
2477;DHT22;1249;51.270;6.756;2023-07-30T05:46:34;22.10;99.90
2477;DHT22;1249;51.270;6.756;2023-07-30T05:49:00;22.10;99.90
2477;DHT22;1249;51.270;6.756;2023-07-30T05:51:25;22.10;99.90
2477;DHT22;1249;51.270;6.756;2023-07-30T05:53:51;22.10;99.90
2477;DHT22;1249;51.270;6.756;2023-07-30T05:56:16;22.10;99.90
2477;DHT22;1249;51.270;6.756;2023-07-30T05:58:44;22.10;99.90
2477;DHT22;1249;51.270;6.756;2023-07-30T06:01:09;22.10;99.90
2477;DHT22;1249;51.270;6.756;2023-07-30T06:03:37;22.10;99.90
2477;DHT22;1249;51.270;6.756;2023-07-30T06:06:02;22.20;99.90
2477;DHT22;1249;51.270;6.756;2023-07-30T06:08:28;22.10;99.90
2477;DHT22;1249;51.270;6.756;2023-07-30T06:10:55;22.20;99.90
2477;DHT22;1249;51.270;6.756;2023-07-30T06:13:20;22.20;99.90
2477;DHT22;1249;51.270;6.756;2023-07-30T06:15:46;22.20;99.90
2477;DHT22;1249;51.270;6.756;2023-07-30T06:18:12;22.20;99.90
2477;DHT22;1249;51.270;6.756;2023-07-30T06:20:37;22.20;99.90
2477;DHT22;1249;51.270;6.756;2023-07-30T06:23:03;22.30;99.90
2477;DHT22;1249;51.270;6.756;2023-07-30T06:25:29;22.30;99.90
2477;DHT22;1249;51.270;6.756;2023-07-30T06:27:55;22.30;99.90
2477;DHT22;1249;51.270;6.756;2023-07-30T06:30:24;22.30;99.90
2477;DHT22;1249;51.270;6.756;2023-07-30T06:32:49;22.30;99.90
2477;DHT22;1249;51.270;6.756;2023-07-30T06:35:15;22.20;99.90
2477;DHT22;1249;51.270;6.756;2023-07-30T06:37:41;22.20;99.90
2477;DHT22;1249;51.270;6.756;2023-07-30T06:40:07;22.30;99.90
2477;DHT22;1249;51.270;6.756;2023-07-30T06:42:33;22.30;99.90
2477;DHT22;1249;51.270;6.756;2023-07-30T06:44:58;22.30;99.90
2477;DHT22;1249;51.270;6.756;2023-07-30T06:47:24;22.30;99.90
2477;DHT22;1249;51.270;6.756;2023-07-30T06:49:49;22.30;99.90
2477;DHT22;1249;51.270;6.756;2023-07-30T06:52:15;22.30;99.90
2477;DHT22;1249;51.270;6.756;2023-07-30T06:54:40;22.40;99.90
2477;DHT22;1249;51.270;6.756;2023-07-30T06:57:06;22.50;99.90
2477;DHT22;1249;51.270;6.756;2023-07-30T06:59:33;22.50;99.90
2477;DHT22;1249;51.270;6.756;2023-07-30T07:01:59;22.50;99.90
2477;DHT22;1249;51.270;6.756;2023-07-30T07:04:24;22.50;99.90
2477;DHT22;1249;51.270;6.756;2023-07-30T07:06:50;22.60;99.90
2477;DHT22;1249;51.270;6.756;2023-07-30T07:09:15;22.60;99.90
2477;DHT22;1249;51.270;6.756;2023-07-30T07:11:41;22.60;99.90
2477;DHT22;1249;51.270;6.756;2023-07-30T07:14:07;22.60;99.90
2477;DHT22;1249;51.270;6.756;2023-07-30T07:16:32;22.60;99.90
2477;DHT22;1249;51.270;6.756;2023-07-30T07:18:58;22.70;99.90
2477;DHT22;1249;51.270;6.756;2023-07-30T07:21:23;22.80;99.90
2477;DHT22;1249;51.270;6.756;2023-07-30T07:23:49;22.80;99.90
2477;DHT22;1249;51.270;6.756;2023-07-30T07:26:15;22.80;99.90
2477;DHT22;1249;51.270;6.756;2023-07-30T07:28:40;22.80;99.90
2477;DHT22;1249;51.270;6.756;2023-07-30T07:31:06;22.80;99.90
2477;DHT22;1249;51.270;6.756;2023-07-30T07:33:31;22.90;99.90
2477;DHT22;1249;51.270;6.756;2023-07-30T07:36:07;23.00;99.90
2477;DHT22;1249;51.270;6.756;2023-07-30T07:38:33;23.00;99.90
2477;DHT22;1249;51.270;6.756;2023-07-30T07:41:00;22.90;99.90
2477;DHT22;1249;51.270;6.756;2023-07-30T07:43:25;23.00;99.90
2477;DHT22;1249;51.270;6.756;2023-07-30T07:45:51;23.10;99.90
2477;DHT22;1249;51.270;6.756;2023-07-30T07:48:17;23.10;99.90
2477;DHT22;1249;51.270;6.756;2023-07-30T07:50:42;23.10;99.90
2477;DHT22;1249;51.270;6.756;2023-07-30T07:53:08;23.10;99.90
2477;DHT22;1249;51.270;6.756;2023-07-30T07:55:34;23.00;99.90
2477;DHT22;1249;51.270;6.756;2023-07-30T07:58:00;23.00;99.90
2477;DHT22;1249;51.270;6.756;2023-07-30T08:00:25;23.00;99.90
2477;DHT22;1249;51.270;6.756;2023-07-30T08:02:51;23.00;99.90
2477;DHT22;1249;51.270;6.756;2023-07-30T08:05:16;23.00;99.90
2477;DHT22;1249;51.270;6.756;2023-07-30T08:07:45;23.00;99.90
2477;DHT22;1249;51.270;6.756;2023-07-30T08:10:11;22.90;99.90
2477;DHT22;1249;51.270;6.756;2023-07-30T08:12:37;22.90;99.90
2477;DHT22;1249;51.270;6.756;2023-07-30T08:15:02;22.90;99.90
2477;DHT22;1249;51.270;6.756;2023-07-30T08:17:28;22.90;99.60
2477;DHT22;1249;51.270;6.756;2023-07-30T08:19:54;22.90;99.80
2477;DHT22;1249;51.270;6.756;2023-07-30T08:22:20;22.80;99.60
2477;DHT22;1249;51.270;6.756;2023-07-30T08:24:46;22.80;99.90
2477;DHT22;1249;51.270;6.756;2023-07-30T08:27:12;22.80;99.90
2477;DHT22;1249;51.270;6.756;2023-07-30T08:29:37;22.90;99.70
2477;DHT22;1249;51.270;6.756;2023-07-30T08:32:03;23.00;99.70
2477;DHT22;1249;51.270;6.756;2023-07-30T08:34:29;23.00;99.40
2477;DHT22;1249;51.270;6.756;2023-07-30T08:36:54;23.10;99.30
2477;DHT22;1249;51.270;6.756;2023-07-30T08:39:20;23.10;99.00
2477;DHT22;1249;51.270;6.756;2023-07-30T08:41:46;23.30;99.20
2477;DHT22;1249;51.270;6.756;2023-07-30T08:44:12;23.40;98.80
2477;DHT22;1249;51.270;6.756;2023-07-30T08:46:38;23.50;98.40
2477;DHT22;1249;51.270;6.756;2023-07-30T08:49:04;23.50;97.80
2477;DHT22;1249;51.270;6.756;2023-07-30T08:51:31;23.60;97.70
2477;DHT22;1249;51.270;6.756;2023-07-30T08:54:00;23.60;97.40
2477;DHT22;1249;51.270;6.756;2023-07-30T08:56:27;23.70;97.30
2477;DHT22;1249;51.270;6.756;2023-07-30T08:58:53;23.70;97.20
2477;DHT22;1249;51.270;6.756;2023-07-30T09:01:30;23.60;96.60
2477;DHT22;1249;51.270;6.756;2023-07-30T09:03:59;23.70;96.90
2477;DHT22;1249;51.270;6.756;2023-07-30T09:06:26;23.80;96.60
2477;DHT22;1249;51.270;6.756;2023-07-30T09:08:51;24.00;96.60
2477;DHT22;1249;51.270;6.756;2023-07-30T09:11:17;24.10;95.10
2477;DHT22;1249;51.270;6.756;2023-07-30T09:13:43;24.40;95.20
2477;DHT22;1249;51.270;6.756;2023-07-30T09:16:10;25.00;95.20
2477;DHT22;1249;51.270;6.756;2023-07-30T09:18:44;25.50;93.40
2477;DHT22;1249;51.270;6.756;2023-07-30T09:21:11;25.80;92.20
2477;DHT22;1249;51.270;6.756;2023-07-30T09:23:45;26.30;91.80
2477;DHT22;1249;51.270;6.756;2023-07-30T09:26:11;26.60;90.20
2477;DHT22;1249;51.270;6.756;2023-07-30T09:28:37;27.10;90.00
2477;DHT22;1249;51.270;6.756;2023-07-30T09:31:05;27.70;87.00
2477;DHT22;1249;51.270;6.756;2023-07-30T09:33:34;28.30;84.20
2477;DHT22;1249;51.270;6.756;2023-07-30T09:36:04;28.70;80.50
2477;DHT22;1249;51.270;6.756;2023-07-30T09:38:32;29.10;79.20
2477;DHT22;1249;51.270;6.756;2023-07-30T09:41:03;29.30;76.70
2477;DHT22;1249;51.270;6.756;2023-07-30T09:43:32;29.20;76.10
2477;DHT22;1249;51.270;6.756;2023-07-30T09:46:02;29.40;76.00
2477;DHT22;1249;51.270;6.756;2023-07-30T09:48:29;29.70;75.20
2477;DHT22;1249;51.270;6.756;2023-07-30T09:50:58;29.80;73.30
2477;DHT22;1249;51.270;6.756;2023-07-30T09:53:24;29.90;72.20
2477;DHT22;1249;51.270;6.756;2023-07-30T09:55:50;30.00;70.00
2477;DHT22;1249;51.270;6.756;2023-07-30T09:58:16;29.90;68.90
2477;DHT22;1249;51.270;6.756;2023-07-30T10:00:43;29.60;68.80
2477;DHT22;1249;51.270;6.756;2023-07-30T10:03:10;29.50;70.00
2477;DHT22;1249;51.270;6.756;2023-07-30T10:05:37;29.50;70.90
2477;DHT22;1249;51.270;6.756;2023-07-30T10:08:11;29.90;72.00
2477;DHT22;1249;51.270;6.756;2023-07-30T10:10:38;30.20;69.50
2477;DHT22;1249;51.270;6.756;2023-07-30T10:13:06;30.40;67.40
2477;DHT22;1249;51.270;6.756;2023-07-30T10:15:43;30.30;66.30
2477;DHT22;1249;51.270;6.756;2023-07-30T10:18:09;30.40;67.60
2477;DHT22;1249;51.270;6.756;2023-07-30T10:20:35;30.60;65.30
2477;DHT22;1249;51.270;6.756;2023-07-30T10:23:01;30.40;64.70
2477;DHT22;1249;51.270;6.756;2023-07-30T10:25:42;29.70;63.30
2477;DHT22;1249;51.270;6.756;2023-07-30T10:28:09;29.30;64.90
2477;DHT22;1249;51.270;6.756;2023-07-30T10:30:34;29.20;66.90
2477;DHT22;1249;51.270;6.756;2023-07-30T10:33:02;29.90;68.30
2477;DHT22;1249;51.270;6.756;2023-07-30T10:35:42;29.90;64.40
2477;DHT22;1249;51.270;6.756;2023-07-30T10:38:22;29.50;63.30
2477;DHT22;1249;51.270;6.756;2023-07-30T10:41:10;29.10;64.40
2477;DHT22;1249;51.270;6.756;2023-07-30T10:43:43;29.20;69.90
2477;DHT22;1249;51.270;6.756;2023-07-30T10:46:11;30.10;67.70
2477;DHT22;1249;51.270;6.756;2023-07-30T10:48:39;30.90;63.60
2477;DHT22;1249;51.270;6.756;2023-07-30T10:51:08;31.60;61.20
2477;DHT22;1249;51.270;6.756;2023-07-30T10:53:34;31.40;58.40
2477;DHT22;1249;51.270;6.756;2023-07-30T10:56:06;30.80;58.30
2477;DHT22;1249;51.270;6.756;2023-07-30T10:58:33;30.30;59.30
2477;DHT22;1249;51.270;6.756;2023-07-30T11:01:01;29.70;60.30
2477;DHT22;1249;51.270;6.756;2023-07-30T11:03:27;29.30;61.60
2477;DHT22;1249;51.270;6.756;2023-07-30T11:05:54;29.10;63.00
2477;DHT22;1249;51.270;6.756;2023-07-30T11:08:31;29.60;67.50
2477;DHT22;1249;51.270;6.756;2023-07-30T11:10:57;30.00;63.20
2477;DHT22;1249;51.270;6.756;2023-07-30T11:13:22;30.50;63.90
2477;DHT22;1249;51.270;6.756;2023-07-30T11:15:48;30.40;62.50
2477;DHT22;1249;51.270;6.756;2023-07-30T11:18:14;30.20;61.00
2477;DHT22;1249;51.270;6.756;2023-07-30T11:20:40;30.10;61.60
2477;DHT22;1249;51.270;6.756;2023-07-30T11:23:26;30.70;63.10
2477;DHT22;1249;51.270;6.756;2023-07-30T11:25:51;31.00;61.60
2477;DHT22;1249;51.270;6.756;2023-07-30T11:28:34;30.70;62.00
2477;DHT22;1249;51.270;6.756;2023-07-30T11:33:42;30.40;62.20
2477;DHT22;1249;51.270;6.756;2023-07-30T11:36:10;30.30;62.90
2477;DHT22;1249;51.270;6.756;2023-07-30T11:38:38;30.30;64.00
2477;DHT22;1249;51.270;6.756;2023-07-30T11:41:04;30.30;63.50
2477;DHT22;1249;51.270;6.756;2023-07-30T11:43:30;30.70;65.10
2477;DHT22;1249;51.270;6.756;2023-07-30T11:48:32;30.70;62.80
2477;DHT22;1249;51.270;6.756;2023-07-30T11:50:58;31.40;65.00
2477;DHT22;1249;51.270;6.756;2023-07-30T11:53:44;31.80;60.60
2477;DHT22;1249;51.270;6.756;2023-07-30T11:56:20;32.10;60.80
2477;DHT22;1249;51.270;6.756;2023-07-30T11:58:47;31.90;58.80
2477;DHT22;1249;51.270;6.756;2023-07-30T12:01:15;31.50;58.60
2477;DHT22;1249;51.270;6.756;2023-07-30T12:03:41;31.30;59.90
2477;DHT22;1249;51.270;6.756;2023-07-30T12:06:07;31.10;59.70
2477;DHT22;1249;51.270;6.756;2023-07-30T12:08:34;30.90;60.50
2477;DHT22;1249;51.270;6.756;2023-07-30T12:11:05;30.60;61.10
2477;DHT22;1249;51.270;6.756;2023-07-30T12:13:31;30.50;61.60
2477;DHT22;1249;51.270;6.756;2023-07-30T12:15:57;31.40;64.40
2477;DHT22;1249;51.270;6.756;2023-07-30T12:18:24;32.00;58.10
2477;DHT22;1249;51.270;6.756;2023-07-30T12:20:51;31.90;58.20
2477;DHT22;1249;51.270;6.756;2023-07-30T12:23:18;31.50;57.30
2477;DHT22;1249;51.270;6.756;2023-07-30T12:25:45;31.30;56.90
2477;DHT22;1249;51.270;6.756;2023-07-30T12:28:10;31.00;57.10
2477;DHT22;1249;51.270;6.756;2023-07-30T12:30:36;30.60;57.90
2477;DHT22;1249;51.270;6.756;2023-07-30T12:33:06;30.30;58.20
2477;DHT22;1249;51.270;6.756;2023-07-30T12:35:34;30.20;59.20
2477;DHT22;1249;51.270;6.756;2023-07-30T12:38:01;30.50;60.10
2477;DHT22;1249;51.270;6.756;2023-07-30T12:40:27;30.40;57.10
2477;DHT22;1249;51.270;6.756;2023-07-30T12:42:55;31.10;60.00
2477;DHT22;1249;51.270;6.756;2023-07-30T12:45:20;32.40;56.70
2477;DHT22;1249;51.270;6.756;2023-07-30T12:47:46;33.20;52.80
2477;DHT22;1249;51.270;6.756;2023-07-30T12:50:12;33.50;53.50
2477;DHT22;1249;51.270;6.756;2023-07-30T12:52:37;34.60;53.10
2477;DHT22;1249;51.270;6.756;2023-07-30T12:55:04;35.20;50.60
2477;DHT22;1249;51.270;6.756;2023-07-30T12:57:30;34.90;49.10
2477;DHT22;1249;51.270;6.756;2023-07-30T12:59:56;34.30;49.40
2477;DHT22;1249;51.270;6.756;2023-07-30T13:02:21;34.00;49.80
2477;DHT22;1249;51.270;6.756;2023-07-30T13:04:47;33.80;51.90
2477;DHT22;1249;51.270;6.756;2023-07-30T13:07:13;33.70;50.00
2477;DHT22;1249;51.270;6.756;2023-07-30T13:09:39;34.00;52.10
2477;DHT22;1249;51.270;6.756;2023-07-30T13:12:05;35.00;51.40
2477;DHT22;1249;51.270;6.756;2023-07-30T13:14:30;35.80;48.90
2477;DHT22;1249;51.270;6.756;2023-07-30T13:16:56;36.30;47.40
2477;DHT22;1249;51.270;6.756;2023-07-30T13:19:21;36.30;48.00
2477;DHT22;1249;51.270;6.756;2023-07-30T13:21:47;36.40;46.50
2477;DHT22;1249;51.270;6.756;2023-07-30T13:26:40;37.60;46.30
2477;DHT22;1249;51.270;6.756;2023-07-30T13:29:06;38.10;46.70
2477;DHT22;1249;51.270;6.756;2023-07-30T13:31:31;38.40;45.50
2477;DHT22;1249;51.270;6.756;2023-07-30T13:33:57;38.60;44.50
2477;DHT22;1249;51.270;6.756;2023-07-30T13:36:22;38.90;44.80
2477;DHT22;1249;51.270;6.756;2023-07-30T13:38:48;39.10;43.70
2477;DHT22;1249;51.270;6.756;2023-07-30T13:41:14;39.00;44.10
2477;DHT22;1249;51.270;6.756;2023-07-30T13:43:40;39.20;43.90
2477;DHT22;1249;51.270;6.756;2023-07-30T13:46:05;39.20;43.50
2477;DHT22;1249;51.270;6.756;2023-07-30T13:48:31;38.10;43.40
2477;DHT22;1249;51.270;6.756;2023-07-30T13:50:56;37.00;44.10
2477;DHT22;1249;51.270;6.756;2023-07-30T13:53:22;36.20;45.60
2477;DHT22;1249;51.270;6.756;2023-07-30T13:55:48;35.50;47.50
2477;DHT22;1249;51.270;6.756;2023-07-30T13:58:13;35.60;48.90
2477;DHT22;1249;51.270;6.756;2023-07-30T14:00:41;35.30;48.00
2477;DHT22;1249;51.270;6.756;2023-07-30T14:03:07;34.80;48.90
2477;DHT22;1249;51.270;6.756;2023-07-30T14:05:33;34.70;50.10
2477;DHT22;1249;51.270;6.756;2023-07-30T14:07:58;34.50;49.70
2477;DHT22;1249;51.270;6.756;2023-07-30T14:10:24;34.90;50.80
2477;DHT22;1249;51.270;6.756;2023-07-30T14:12:50;35.60;50.10
2477;DHT22;1249;51.270;6.756;2023-07-30T14:15:15;36.50;49.80
2477;DHT22;1249;51.270;6.756;2023-07-30T14:17:41;37.10;46.80
2477;DHT22;1249;51.270;6.756;2023-07-30T14:20:08;37.60;47.30
2477;DHT22;1249;51.270;6.756;2023-07-30T14:22:34;37.80;45.90
2477;DHT22;1249;51.270;6.756;2023-07-30T14:25:00;37.90;46.60
2477;DHT22;1249;51.270;6.756;2023-07-30T14:27:26;38.30;45.90
2477;DHT22;1249;51.270;6.756;2023-07-30T14:29:51;38.70;45.80
2477;DHT22;1249;51.270;6.756;2023-07-30T14:32:19;38.40;44.20
2477;DHT22;1249;51.270;6.756;2023-07-30T14:34:45;37.80;46.70
2477;DHT22;1249;51.270;6.756;2023-07-30T14:37:10;37.50;45.60
2477;DHT22;1249;51.270;6.756;2023-07-30T14:39:36;37.20;47.70
2477;DHT22;1249;51.270;6.756;2023-07-30T14:42:01;36.80;47.00
2477;DHT22;1249;51.270;6.756;2023-07-30T14:44:27;36.30;47.10
2477;DHT22;1249;51.270;6.756;2023-07-30T14:46:53;35.50;47.90
2477;DHT22;1249;51.270;6.756;2023-07-30T14:49:18;34.80;49.20
2477;DHT22;1249;51.270;6.756;2023-07-30T14:51:45;34.10;49.90
2477;DHT22;1249;51.270;6.756;2023-07-30T14:54:10;33.40;51.20
2477;DHT22;1249;51.270;6.756;2023-07-30T14:56:36;32.90;52.40
2477;DHT22;1249;51.270;6.756;2023-07-30T14:59:02;32.70;53.80
2477;DHT22;1249;51.270;6.756;2023-07-30T15:01:29;33.20;55.30
2477;DHT22;1249;51.270;6.756;2023-07-30T15:03:54;33.90;53.40
2477;DHT22;1249;51.270;6.756;2023-07-30T15:06:20;34.20;51.40
2477;DHT22;1249;51.270;6.756;2023-07-30T15:08:46;34.10;50.30
2477;DHT22;1249;51.270;6.756;2023-07-30T15:11:12;34.10;50.60
2477;DHT22;1249;51.270;6.756;2023-07-30T15:13:39;34.50;49.60
2477;DHT22;1249;51.270;6.756;2023-07-30T15:16:05;34.50;48.90
2477;DHT22;1249;51.270;6.756;2023-07-30T15:18:31;34.10;48.90
2477;DHT22;1249;51.270;6.756;2023-07-30T15:20:56;33.70;49.00
2477;DHT22;1249;51.270;6.756;2023-07-30T15:23:22;33.30;49.20
2477;DHT22;1249;51.270;6.756;2023-07-30T15:25:47;32.90;49.50
2477;DHT22;1249;51.270;6.756;2023-07-30T15:28:14;32.50;50.90
2477;DHT22;1249;51.270;6.756;2023-07-30T15:30:40;32.00;51.60
2477;DHT22;1249;51.270;6.756;2023-07-30T15:33:08;31.70;52.90
2477;DHT22;1249;51.270;6.756;2023-07-30T15:35:33;31.80;56.90
2477;DHT22;1249;51.270;6.756;2023-07-30T15:37:59;32.10;54.30
2477;DHT22;1249;51.270;6.756;2023-07-30T15:40:25;32.20;53.10
2477;DHT22;1249;51.270;6.756;2023-07-30T15:42:51;32.50;53.70
2477;DHT22;1249;51.270;6.756;2023-07-30T15:45:16;32.70;53.50
2477;DHT22;1249;51.270;6.756;2023-07-30T15:47:43;33.10;53.00
2477;DHT22;1249;51.270;6.756;2023-07-30T15:50:08;33.00;53.00
2477;DHT22;1249;51.270;6.756;2023-07-30T15:52:34;33.30;52.60
2477;DHT22;1249;51.270;6.756;2023-07-30T15:54:59;33.20;50.90
2477;DHT22;1249;51.270;6.756;2023-07-30T15:57:25;32.90;50.80
2477;DHT22;1249;51.270;6.756;2023-07-30T15:59:51;32.70;51.50
2477;DHT22;1249;51.270;6.756;2023-07-30T16:02:16;32.80;52.00
2477;DHT22;1249;51.270;6.756;2023-07-30T16:04:42;32.70;50.70